| time (UTC) | temp F | wind direction | speed MPH | gust MPH | rain 1hr in | rain 24hr in | rain mn in | humidity % | barometer mb |
| 20260903115705 | 80 | 344 | 6.0 | 15.0 | 0.00 | 0.00 | 0.00 | 40 | 1023.4 |
| 20260903115206 | 80 | 312 | 9.0 | 16.0 | 0.00 | 0.00 | 0.00 | 40 | 1023.3 |
| 20260903114705 | 80 | 303 | 3.0 | 12.0 | 0.00 | 0.00 | 0.00 | 42 | 1023.3 |
| 20260903113705 | 80 | 302 | 4.0 | 8.0 | 0.00 | 0.00 | 0.00 | 43 | 1023.3 |
| 20260903113205 | 79 | 287 | 7.0 | 13.0 | 0.00 | 0.00 | 0.00 | 43 | 1023.3 |
| 20260903112706 | 79 | 277 | 6.0 | 12.0 | 0.00 | 0.00 | 0.00 | 43 | 1023.4 |
| 20260903112205 | 79 | 287 | 7.0 | 13.0 | 0.00 | 0.00 | 0.00 | 43 | 1023.4 |
| 20260903111205 | 80 | 273 | 2.0 | 6.0 | 0.00 | 0.00 | 0.00 | 47 | 1023.6 |
| 20260903110706 | 80 | 321 | 3.0 | 7.0 | 0.00 | 0.00 | 0.00 | 45 | 1023.6 |
| 20260903110205 | 80 | 22 | 2.0 | 5.0 | 0.00 | 0.00 | 0.00 | 46 | 1023.7 |
| 20260903105205 | 81 | 3 | 3.0 | 6.0 | 0.00 | 0.00 | 0.00 | 44 | 1023.6 |
| 20260903104705 | 81 | 297 | 3.0 | 8.0 | 0.00 | 0.00 | 0.00 | 46 | 1023.7 |
| 20260903104206 | 81 | 356 | 4.0 | 10.0 | 0.00 | 0.00 | 0.00 | 45 | 1023.6 |
| 20260903103705 | 81 | 358 | 3.0 | 7.0 | 0.00 | 0.00 | 0.00 | 44 | 1023.8 |
| 20260903103206 | 81 | 358 | 4.0 | 9.0 | 0.00 | 0.00 | 0.00 | 46 | 1023.8 |
| 20260903102705 | 81 | 66 | 2.0 | 7.0 | 0.00 | 0.00 | 0.00 | 47 | 1023.9 |
| 20260903101707 | 80 | 313 | 2.0 | 13.0 | 0.00 | 0.00 | 0.00 | 46 | 1023.9 |
| 20260903100706 | 80 | 346 | 3.0 | 7.0 | 0.00 | 0.00 | 0.00 | 47 | 1024.2 |
| 20260903100206 | 80 | 275 | 4.0 | 10.0 | 0.00 | 0.00 | 0.00 | 47 | 1024.2 |
| 20260903095705 | 80 | 11 | 5.0 | 7.0 | 0.00 | 0.00 | 0.00 | 47 | 1024.1 |
| 20260903095207 | 80 | 320 | 5.0 | 9.0 | 0.00 | 0.00 | 0.00 | 49 | 1024.2 |
| 20260903094705 | 80 | 279 | 4.0 | 7.0 | 0.00 | 0.00 | 0.00 | 51 | 1024.3 |
| 20260903094206 | 79 | 310 | 2.0 | 5.0 | 0.00 | 0.00 | 0.00 | 51 | 1024.4 |
| 20260903093705 | 78 | 339 | 1.0 | 5.0 | 0.00 | 0.00 | 0.00 | 51 | 1024.5 |
| 20260903093205 | 78 | 5 | 2.0 | 6.0 | 0.00 | 0.00 | 0.00 | 52 | 1024.6 |
| 20260903092707 | 77 | 306 | 2.0 | 5.0 | 0.00 | 0.00 | 0.00 | 52 | 1024.6 |
| 20260903092206 | 77 | 301 | 2.0 | 7.0 | 0.00 | 0.00 | 0.00 | 52 | 1024.5 |
| 20260903091705 | 77 | 217 | 2.0 | 5.0 | 0.00 | 0.00 | 0.00 | 53 | 1024.6 |
| 20260903091205 | 76 | 37 | 2.0 | 5.0 | 0.00 | 0.00 | 0.00 | 54 | 1024.8 |
| 20260903090206 | 76 | 3 | 3.0 | 5.0 | 0.00 | 0.00 | 0.00 | 56 | 1024.9 |
| 20260903085705 | 75 | 28 | 1.0 | 3.0 | 0.00 | 0.00 | 0.00 | 57 | 1025.1 |
| 20260903085207 | 74 | 35 | 1.0 | 3.0 | 0.00 | 0.00 | 0.00 | 58 | 1024.9 |
| 20260903084706 | 74 | 285 | 2.0 | 3.0 | 0.00 | 0.00 | 0.00 | 59 | 1024.9 |
| 20260903084205 | 73 | 33 | 2.0 | 6.0 | 0.00 | 0.00 | 0.00 | 61 | 1024.8 |
| 20260903083705 | 72 | 353 | 3.0 | 6.0 | 0.00 | 0.00 | 0.00 | 61 | 1024.9 |
| 20260903083206 | 71 | 359 | 2.0 | 5.0 | 0.00 | 0.00 | 0.00 | 62 | 1025.2 |
| 20260903082705 | 71 | 337 | 2.0 | 5.0 | 0.00 | 0.00 | 0.00 | 63 | 1025.2 |
| 20260903082207 | 71 | 304 | 2.0 | 3.0 | 0.00 | 0.00 | 0.00 | 63 | 1025.1 |
| 20260903081707 | 70 | 275 | 2.0 | 3.0 | 0.00 | 0.00 | 0.00 | 64 | 1025.1 |
| 20260903081205 | 70 | 325 | 1.0 | 2.0 | 0.00 | 0.00 | 0.00 | 65 | 1025.0 |
| 20260903080706 | 69 | 285 | 2.0 | 5.0 | 0.00 | 0.00 | 0.00 | 65 | 1024.9 |
| 20260903080206 | 69 | 261 | 3.0 | 5.0 | 0.00 | 0.00 | 0.00 | 65 | 1025.0 |
| 20260903074705 | 68 | 296 | 3.0 | 3.0 | 0.00 | 0.00 | 0.00 | 67 | 1025.0 |
| 20260903074205 | 67 | 263 | 2.0 | 3.0 | 0.00 | 0.00 | 0.00 | 67 | 1025.1 |
| 20260903073705 | 67 | 292 | 2.0 | 3.0 | 0.00 | 0.00 | 0.00 | 68 | 1025.2 |
| 20260903073205 | 67 | 267 | 2.0 | 2.0 | 0.00 | 0.00 | 0.00 | 69 | 1025.1 |
| 20260903072705 | 66 | 291 | 0.0 | 1.0 | 0.00 | 0.00 | 0.00 | 69 | 1025.1 |
| 20260903072205 | 66 | 173 | 1.0 | 3.0 | 0.00 | 0.00 | 0.00 | 69 | 1025.2 |
| 20260903071705 | 66 | 267 | 1.0 | 3.0 | 0.00 | 0.00 | 0.00 | 70 | 1025.2 |
| 20260903071206 | 65 | 272 | 2.0 | 3.0 | 0.00 | 0.00 | 0.00 | 71 | 1025.2 |
| 20260903070705 | 65 | 214 | 2.0 | 3.0 | 0.00 | 0.00 | 0.00 | 71 | 1025.2 |
| 20260903065705 | 64 | 251 | 1.0 | 3.0 | 0.00 | 0.00 | 0.00 | 73 | 1025.2 |
| 20260903065206 | 64 | 276 | 1.0 | 2.0 | 0.00 | 0.00 | 0.00 | 74 | 1025.1 |
| 20260903063705 | 63 | 250 | 2.0 | 5.0 | 0.00 | 0.00 | 0.00 | 76 | 1025.4 |
| 20260903063207 | 62 | 247 | 2.0 | 5.0 | 0.00 | 0.00 | 0.00 | 77 | 1025.3 |
| 20260903061705 | 62 | 248 | 2.0 | 5.0 | 0.00 | 0.00 | 0.00 | 80 | 1025.0 |
| 20260903061205 | 61 | 239 | 2.0 | 5.0 | 0.00 | 0.00 | 0.00 | 80 | 1025.2 |
| 20260903060705 | 61 | 233 | 3.0 | 5.0 | 0.00 | 0.00 | 0.00 | 81 | 1025.1 |
| 20260903060206 | 60 | 248 | 2.0 | 5.0 | 0.00 | 0.00 | 0.00 | 82 | 1024.7 |
| 20260903055706 | 60 | 225 | 1.0 | 3.0 | 0.00 | 0.00 | 0.00 | 82 | 1024.8 |
| 20260903055207 | 60 | 239 | 2.0 | 3.0 | 0.00 | 0.00 | 0.00 | 82 | 1024.8 |
| 20260903054705 | 60 | 245 | 2.0 | 3.0 | 0.00 | 0.00 | 0.00 | 83 | 1024.8 |
| 20260903054205 | 59 | 260 | 1.0 | 2.0 | 0.00 | 0.00 | 0.00 | 83 | 1024.8 |
| 20260903053706 | 59 | 267 | 1.0 | 2.0 | 0.00 | 0.00 | 0.00 | 84 | 1024.7 |
| 20260903052705 | 58 | 309 | 1.0 | 2.0 | 0.00 | 0.00 | 0.00 | 84 | 1024.6 |
| 20260903052205 | 58 | 350 | 1.0 | 3.0 | 0.00 | 0.00 | 0.00 | 84 | 1024.7 |
| 20260903051705 | 58 | 62 | 1.0 | 2.0 | 0.00 | 0.00 | 0.00 | 83 | 1024.6 |
| 20260903050705 | 57 | 329 | 1.0 | 2.0 | 0.00 | 0.00 | 0.00 | 83 | 1024.7 |
| 20260903045705 | 57 | 1 | 1.0 | 2.0 | 0.00 | 0.00 | 0.00 | 83 | 1024.4 |
| 20260903045206 | 57 | 1 | 1.0 | 2.0 | 0.00 | 0.00 | 0.00 | 83 | 1024.4 |
| 20260903044207 | 56 | 336 | 1.0 | 2.0 | 0.00 | 0.00 | 0.00 | 83 | 1024.5 |
| 20260903043705 | 56 | 351 | 1.0 | 3.0 | 0.00 | 0.00 | 0.00 | 83 | 1024.5 |
| 20260903042705 | 56 | 91 | 1.0 | 2.0 | 0.00 | 0.00 | 0.00 | 83 | 1024.8 |
| 20260903041207 | 56 | 262 | 2.0 | 5.0 | 0.00 | 0.00 | 0.00 | 83 | 1024.8 |
| 20260903040205 | 56 | 316 | 0.0 | 1.0 | 0.00 | 0.00 | 0.00 | 83 | 1024.3 |
| 20260903035705 | 56 | 49 | 2.0 | 2.0 | 0.00 | 0.00 | 0.00 | 83 | 1024.3 |
| 20260903034705 | 56 | 119 | 1.0 | 3.0 | 0.00 | 0.00 | 0.00 | 83 | 1024.2 |
| 20260903034207 | 56 | 285 | 2.0 | 5.0 | 0.00 | 0.00 | 0.00 | 83 | 1024.1 |
| 20260903033705 | 56 | 283 | 3.0 | 5.0 | 0.00 | 0.00 | 0.00 | 83 | 1024.2 |
| 20260903033205 | 56 | 354 | 2.0 | 5.0 | 0.00 | 0.00 | 0.00 | 83 | 1024.1 |
| 20260903032705 | 56 | 354 | 2.0 | 3.0 | 0.00 | 0.00 | 0.00 | 83 | 1024.1 |
| 20260903031705 | 56 | 287 | 1.0 | 2.0 | 0.00 | 0.00 | 0.00 | 82 | 1023.8 |
| 20260903031205 | 56 | 301 | 1.0 | 2.0 | 0.00 | 0.00 | 0.00 | 82 | 1023.8 |
| 20260903030705 | 56 | 349 | 1.0 | 2.0 | 0.00 | 0.00 | 0.00 | 82 | 1023.8 |
| 20260903030206 | 56 | 273 | 1.0 | 2.0 | 0.00 | 0.00 | 0.00 | 82 | 1024.0 |
| 20260903025705 | 56 | 270 | 1.0 | 3.0 | 0.00 | 0.00 | 0.00 | 82 | 1024.0 |
| 20260903025207 | 56 | 279 | 2.0 | 3.0 | 0.00 | 0.00 | 0.00 | 82 | 1024.1 |
| 20260903024705 | 56 | 295 | 1.0 | 2.0 | 0.00 | 0.00 | 0.00 | 82 | 1023.8 |
| 20260903023207 | 56 | 103 | 0.0 | 2.0 | 0.00 | 0.00 | 0.00 | 81 | 1024.1 |
| 20260903022705 | 56 | 204 | 1.0 | 2.0 | 0.00 | 0.00 | 0.00 | 81 | 1024.1 |
| 20260903021706 | 56 | 34 | 1.0 | 2.0 | 0.00 | 0.00 | 0.00 | 80 | 1023.9 |
| 20260903021205 | 57 | 270 | 1.0 | 2.0 | 0.00 | 0.00 | 0.00 | 80 | 1024.0 |
| 20260903020706 | 57 | 248 | 0.0 | 2.0 | 0.00 | 0.00 | 0.00 | 79 | 1024.1 |
| 20260903020207 | 57 | 345 | 1.0 | 2.0 | 0.00 | 0.00 | 0.00 | 79 | 1024.2 |
| 20260903015705 | 57 | 283 | 2.0 | 3.0 | 0.00 | 0.00 | 0.00 | 79 | 1024.1 |
| 20260903015205 | 57 | 267 | 2.0 | 3.0 | 0.00 | 0.00 | 0.00 | 79 | 1024.1 |
| 20260903014705 | 57 | 287 | 2.0 | 5.0 | 0.00 | 0.00 | 0.00 | 79 | 1024.4 |
| 20260903013705 | 58 | 281 | 3.0 | 5.0 | 0.00 | 0.00 | 0.00 | 79 | 1024.2 |
| 20260903013206 | 58 | 258 | 2.0 | 3.0 | 0.00 | 0.00 | 0.00 | 78 | 1024.3 |
| 20260903012205 | 58 | 48 | 1.0 | 2.0 | 0.00 | 0.00 | 0.00 | 77 | 1024.3 |
| 20260903011705 | 58 | 332 | 0.0 | 2.0 | 0.00 | 0.00 | 0.00 | 77 | 1024.2 |
| 20260903011205 | 58 | 92 | 1.0 | 2.0 | 0.00 | 0.00 | 0.00 | 76 | 1024.2 |
| 20260903010705 | 59 | 48 | 1.0 | 2.0 | 0.00 | 0.00 | 0.00 | 76 | 1024.0 |
| 20260903010205 | 59 | 243 | 1.0 | 2.0 | 0.00 | 0.00 | 0.00 | 76 | 1024.0 |
| 20260903005706 | 59 | 226 | 2.0 | 3.0 | 0.00 | 0.00 | 0.00 | 76 | 1023.8 |
| 20260903005205 | 59 | 248 | 1.0 | 2.0 | 0.00 | 0.00 | 0.00 | 76 | 1024.1 |
| 20260903004706 | 60 | 95 | 1.0 | 2.0 | 0.00 | 0.00 | 0.00 | 76 | 1024.0 |
| 20260903004204 | 60 | 352 | 1.0 | 1.0 | 0.00 | 0.00 | 0.00 | 75 | 1023.9 |
| 20260903003705 | 60 | 196 | 1.0 | 3.0 | 0.00 | 0.00 | 0.00 | 74 | 1024.1 |
| 20260903002205 | 61 | 344 | 1.0 | 2.0 | 0.00 | 0.00 | 0.00 | 73 | 1023.8 |
| 20260903001706 | 61 | 279 | 1.0 | 2.0 | 0.00 | 0.00 | 0.00 | 72 | 1023.5 |
| 20260903001205 | 62 | 258 | 1.0 | 3.0 | 0.00 | 0.00 | 0.00 | 72 | 1024.0 |
| 20260903000705 | 62 | 336 | 2.0 | 5.0 | 0.00 | 0.00 | 0.00 | 72 | 1023.7 |
| 20260902235705 | 62 | 304 | 2.0 | 2.0 | 0.00 | 0.00 | 0.00 | 71 | 1023.6 |
| 20260902234705 | 63 | 264 | 1.0 | 3.0 | 0.00 | 0.00 | 0.00 | 71 | 1023.5 |
| 20260902234205 | 63 | 349 | 3.0 | 5.0 | 0.00 | 0.00 | 0.00 | 71 | 1023.8 |
| 20260902233205 | 63 | 282 | 4.0 | 6.0 | 0.00 | 0.00 | 0.00 | 71 | 1023.7 |
| 20260902232205 | 63 | 40 | 1.0 | 2.0 | 0.00 | 0.00 | 0.00 | 71 | 1023.6 |
| 20260902231705 | 62 | 6 | 2.0 | 3.0 | 0.00 | 0.00 | 0.00 | 71 | 1023.7 |
| 20260902231204 | 62 | 315 | 3.0 | 5.0 | 0.00 | 0.00 | 0.00 | 71 | 1023.8 |
| 20260902230707 | 62 | 295 | 2.0 | 5.0 | 0.00 | 0.00 | 0.00 | 72 | 1023.7 |
| 20260902230205 | 62 | 326 | 2.0 | 2.0 | 0.00 | 0.00 | 0.00 | 71 | 1023.5 |
| 20260902225705 | 62 | 311 | 0.0 | 2.0 | 0.00 | 0.00 | 0.00 | 71 | 1023.6 |
| 20260902225205 | 62 | 318 | 1.0 | 3.0 | 0.00 | 0.00 | 0.00 | 70 | 1023.6 |
| 20260902224707 | 62 | 292 | 2.0 | 2.0 | 0.00 | 0.00 | 0.00 | 70 | 1023.5 |
| 20260902224207 | 62 | 248 | 1.0 | 2.0 | 0.00 | 0.00 | 0.00 | 69 | 1023.7 |
| 20260902223705 | 63 | 349 | 0.0 | 3.0 | 0.00 | 0.00 | 0.00 | 68 | 1023.5 |
| 20260902223205 | 63 | 304 | 1.0 | 3.0 | 0.00 | 0.00 | 0.00 | 68 | 1023.6 |
| 20260902222705 | 63 | 293 | 2.0 | 5.0 | 0.00 | 0.00 | 0.00 | 68 | 1023.6 |
| 20260902221705 | 63 | 322 | 0.0 | 1.0 | 0.00 | 0.00 | 0.00 | 67 | 1023.5 |
| 20260902221205 | 64 | 321 | 1.0 | 2.0 | 0.00 | 0.00 | 0.00 | 67 | 1023.7 |
| 20260902220204 | 64 | 276 | 1.0 | 3.0 | 0.00 | 0.00 | 0.00 | 67 | 1023.5 |
| 20260902215205 | 64 | 291 | 2.0 | 3.0 | 0.00 | 0.00 | 0.00 | 66 | 1023.7 |
| 20260902214205 | 65 | 276 | 2.0 | 3.0 | 0.00 | 0.00 | 0.00 | 65 | 1023.5 |
| 20260902213205 | 65 | 287 | 3.0 | 5.0 | 0.00 | 0.00 | 0.00 | 64 | 1023.3 |
| 20260902212205 | 66 | 285 | 2.0 | 3.0 | 0.00 | 0.00 | 0.00 | 63 | 1023.4 |
| 20260902211704 | 66 | 282 | 1.0 | 5.0 | 0.00 | 0.00 | 0.00 | 63 | 1023.6 |
| 20260902211205 | 66 | 331 | 2.0 | 3.0 | 0.00 | 0.00 | 0.00 | 63 | 1023.2 |
| 20260902210205 | 67 | 331 | 3.0 | 7.0 | 0.00 | 0.00 | 0.00 | 63 | 1023.6 |
| 20260902205705 | 67 | 6 | 5.0 | 7.0 | 0.00 | 0.00 | 0.00 | 63 | 1023.4 |
| 20260902205206 | 67 | 10 | 2.0 | 3.0 | 0.00 | 0.00 | 0.00 | 62 | 1023.3 |
| 20260902203705 | 67 | 234 | 3.0 | 7.0 | 0.00 | 0.00 | 0.00 | 61 | 1023.4 |
| 20260902203205 | 67 | 239 | 3.0 | 6.0 | 0.00 | 0.00 | 0.00 | 62 | 1023.5 |
| 20260902202706 | 66 | 230 | 4.0 | 8.0 | 0.00 | 0.00 | 0.00 | 65 | 1023.6 |
| 20260902201205 | 66 | 315 | 2.0 | 5.0 | 0.00 | 0.00 | 0.00 | 67 | 1023.4 |
| 20260902200205 | 65 | 314 | 3.0 | 3.0 | 0.00 | 0.00 | 0.00 | 67 | 1023.5 |
| 20260902195205 | 65 | 291 | 1.0 | 2.0 | 0.00 | 0.00 | 0.00 | 67 | 1023.3 |
| 20260902194705 | 66 | 275 | 1.0 | 2.0 | 0.00 | 0.00 | 0.00 | 67 | 1023.3 |
| 20260902194205 | 66 | 319 | 2.0 | 3.0 | 0.00 | 0.00 | 0.00 | 67 | 1023.4 |
| 20260902193705 | 66 | 354 | 2.0 | 2.0 | 0.00 | 0.00 | 0.00 | 66 | 1023.1 |
| 20260902192705 | 66 | 261 | 1.0 | 2.0 | 0.00 | 0.00 | 0.00 | 61 | 1023.4 |
| 20260902192205 | 66 | 310 | 0.0 | 1.0 | 0.00 | 0.00 | 0.00 | 61 | 1023.2 |
| 20260902191705 | 66 | 248 | 0.0 | 1.0 | 0.00 | 0.00 | 0.00 | 60 | 1023.3 |
| 20260902191205 | 67 | 298 | 1.0 | 1.0 | 0.00 | 0.00 | 0.00 | 60 | 1023.3 |
| 20260902190705 | 67 | 289 | 2.0 | 3.0 | 0.00 | 0.00 | 0.00 | 60 | 1023.5 |
| 20260902190205 | 67 | 277 | 2.0 | 2.0 | 0.00 | 0.00 | 0.00 | 60 | 1023.5 |
| 20260902185704 | 67 | 291 | 0.0 | 2.0 | 0.00 | 0.00 | 0.00 | 60 | 1023.3 |
| 20260902185207 | 67 | 259 | 1.0 | 2.0 | 0.00 | 0.00 | 0.00 | 60 | 1023.5 |
| 20260902183705 | 68 | 272 | 1.0 | 2.0 | 0.00 | 0.00 | 0.00 | 59 | 1023.3 |
| 20260902183204 | 68 | 270 | 1.0 | 2.0 | 0.00 | 0.00 | 0.00 | 59 | 1023.4 |
| 20260902182705 | 68 | 273 | 1.0 | 2.0 | 0.00 | 0.00 | 0.00 | 60 | 1023.3 |
| 20260902181704 | 69 | 271 | 2.0 | 2.0 | 0.00 | 0.00 | 0.00 | 63 | 1023.3 |
| 20260902181205 | 70 | 281 | 0.0 | 2.0 | 0.00 | 0.00 | 0.00 | 61 | 1023.3 |
| 20260902180705 | 70 | 317 | 0.0 | 2.0 | 0.00 | 0.00 | 0.00 | 60 | 1023.0 |
| 20260902180204 | 71 | 277 | 0.0 | 1.0 | 0.00 | 0.00 | 0.00 | 59 | 1023.1 |
| 20260902175705 | 71 | 290 | 0.0 | 2.0 | 0.00 | 0.00 | 0.00 | 59 | 1023.3 |
| 20260902173206 | 74 | 343 | 1.0 | 2.0 | 0.00 | 0.00 | 0.00 | 57 | 1022.8 |
| 20260902172705 | 75 | 331 | 0.0 | 2.0 | 0.00 | 0.00 | 0.00 | 55 | 1022.8 |
| 20260902172205 | 75 | 330 | 1.0 | 2.0 | 0.00 | 0.00 | 0.00 | 53 | 1022.6 |
| 20260902171705 | 76 | 14 | 0.0 | 1.0 | 0.00 | 0.00 | 0.00 | 51 | 1022.8 |
| 20260902170706 | 77 | 32 | 0.0 | 1.0 | 0.00 | 0.00 | 0.00 | 50 | 1022.6 |
| 20260902165705 | 78 | 57 | 0.0 | 1.0 | 0.00 | 0.00 | 0.00 | 48 | 1022.8 |
| 20260902165204 | 78 | 353 | 0.0 | 2.0 | 0.00 | 0.00 | 0.00 | 48 | 1022.7 |
| 20260902164705 | 78 | 337 | 1.0 | 2.0 | 0.00 | 0.00 | 0.00 | 48 | 1022.9 |
| 20260902164206 | 78 | 326 | 1.0 | 2.0 | 0.00 | 0.00 | 0.00 | 48 | 1023.1 |
| 20260902163704 | 78 | 337 | 1.0 | 2.0 | 0.00 | 0.00 | 0.00 | 48 | 1023.0 |
| 20260902163204 | 78 | 322 | 1.0 | 3.0 | 0.00 | 0.00 | 0.00 | 47 | 1023.0 |
| 20260902162705 | 78 | 334 | 2.0 | 2.0 | 0.00 | 0.00 | 0.00 | 47 | 1022.9 |
| 20260902161204 | 79 | 349 | 1.0 | 2.0 | 0.00 | 0.00 | 0.00 | 45 | 1023.0 |
| 20260902160705 | 79 | 345 | 2.0 | 2.0 | 0.00 | 0.00 | 0.00 | 44 | 1023.0 |
| 20260902160205 | 79 | 315 | 2.0 | 3.0 | 0.00 | 0.00 | 0.00 | 43 | 1023.1 |
| 20260902155705 | 80 | 339 | 2.0 | 3.0 | 0.00 | 0.00 | 0.00 | 42 | 1023.0 |
| 20260902155205 | 80 | 344 | 1.0 | 2.0 | 0.00 | 0.00 | 0.00 | 42 | 1022.8 |
| 20260902154706 | 80 | 21 | 0.0 | 2.0 | 0.00 | 0.00 | 0.00 | 41 | 1022.7 |
| 20260902154205 | 81 | 316 | 1.0 | 3.0 | 0.00 | 0.00 | 0.00 | 40 | 1022.7 |
| 20260902153705 | 81 | 334 | 2.0 | 5.0 | 0.00 | 0.00 | 0.00 | 40 | 1022.8 |
| 20260902153205 | 81 | 3 | 2.0 | 5.0 | 0.00 | 0.00 | 0.00 | 40 | 1022.9 |
| 20260902152205 | 82 | 323 | 2.0 | 5.0 | 0.00 | 0.00 | 0.00 | 38 | 1023.0 |
| 20260902151705 | 82 | 336 | 2.0 | 6.0 | 0.00 | 0.00 | 0.00 | 38 | 1023.0 |
| 20260902151204 | 83 | 27 | 3.0 | 6.0 | 0.00 | 0.00 | 0.00 | 39 | 1023.1 |
| 20260902150204 | 82 | 303 | 2.0 | 6.0 | 0.00 | 0.00 | 0.00 | 38 | 1023.1 |
| 20260902144705 | 82 | 334 | 3.0 | 12.0 | 0.00 | 0.00 | 0.00 | 36 | 1023.1 |
| 20260902144204 | 82 | 290 | 5.0 | 10.0 | 0.00 | 0.00 | 0.00 | 37 | 1023.3 |
| 20260902143705 | 82 | 280 | 6.0 | 10.0 | 0.00 | 0.00 | 0.00 | 37 | 1023.4 |
| 20260902143205 | 82 | 293 | 5.0 | 10.0 | 0.00 | 0.00 | 0.00 | 36 | 1023.3 |
| 20260902141705 | 83 | 289 | 6.0 | 10.0 | 0.00 | 0.00 | 0.00 | 37 | 1023.6 |
| 20260902141205 | 83 | 279 | 5.0 | 9.0 | 0.00 | 0.00 | 0.00 | 36 | 1023.7 |
| 20260902140704 | 83 | 296 | 6.0 | 14.0 | 0.00 | 0.00 | 0.00 | 37 | 1023.6 |
| 20260902140205 | 83 | 289 | 7.0 | 13.0 | 0.00 | 0.00 | 0.00 | 36 | 1023.7 |
| 20260902135704 | 83 | 314 | 3.0 | 7.0 | 0.00 | 0.00 | 0.00 | 36 | 1023.8 |
| 20260902135205 | 83 | 356 | 2.0 | 6.0 | 0.00 | 0.00 | 0.00 | 37 | 1023.8 |
| 20260902134704 | 83 | 270 | 6.0 | 12.0 | 0.00 | 0.00 | 0.00 | 36 | 1023.8 |
| 20260902134204 | 83 | 280 | 7.0 | 12.0 | 0.00 | 0.00 | 0.00 | 36 | 1023.8 |
| 20260902132704 | 84 | 298 | 4.0 | 12.0 | 0.00 | 0.00 | 0.00 | 36 | 1023.8 |
| 20260902132205 | 84 | 306 | 7.0 | 13.0 | 0.00 | 0.00 | 0.00 | 35 | 1023.7 |
| 20260902131705 | 84 | 324 | 5.0 | 8.0 | 0.00 | 0.00 | 0.00 | 36 | 1023.9 |
| 20260902131206 | 84 | 283 | 5.0 | 7.0 | 0.00 | 0.00 | 0.00 | 36 | 1023.9 |
| 20260902130704 | 84 | 308 | 6.0 | 13.0 | 0.00 | 0.00 | 0.00 | 36 | 1024.1 |
| 20260902125704 | 84 | 294 | 9.0 | 13.0 | 0.00 | 0.00 | 0.00 | 36 | 1024.0 |
| 20260902125204 | 84 | 285 | 7.0 | 13.0 | 0.00 | 0.00 | 0.00 | 36 | 1024.0 |
| 20260902124705 | 83 | 271 | 3.0 | 12.0 | 0.00 | 0.00 | 0.00 | 37 | 1024.1 |
| 20260902123704 | 82 | 295 | 7.0 | 15.0 | 0.00 | 0.00 | 0.00 | 37 | 1024.1 |
| 20260902123205 | 82 | 279 | 5.0 | 8.0 | 0.00 | 0.00 | 0.00 | 38 | 1024.1 |
| 20260902122706 | 83 | 284 | 5.0 | 8.0 | 0.00 | 0.00 | 0.00 | 37 | 1024.4 |
| 20260902122204 | 83 | 287 | 5.0 | 10.0 | 0.00 | 0.00 | 0.00 | 37 | 1024.4 |
| 20260902121704 | 83 | 311 | 3.0 | 7.0 | 0.00 | 0.00 | 0.00 | 39 | 1024.5 |
| 20260902121204 | 82 | 283 | 6.0 | 12.0 | 0.00 | 0.00 | 0.00 | 41 | 1024.7 |
| 20260902120706 | 82 | 310 | 5.0 | 10.0 | 0.00 | 0.00 | 0.00 | 40 | 1024.6 |
| 20260902120204 | 82 | 273 | 3.0 | 5.0 | 0.00 | 0.00 | 0.00 | 40 | 1024.4 |